sensor_id;sensor_type;location;lat;lon;timestamp;P1;durP1;ratioP1;P2;durP2;ratioP2
43266;SDS011;28868;54.074;18.770;2023-02-11T14:45:12;16.30;;;3.60;;
43266;SDS011;28868;54.074;18.770;2023-02-11T14:59:19;28.48;;;5.22;;
43266;SDS011;28868;54.074;18.770;2023-02-11T15:06:10;23.27;;;3.45;;
43266;SDS011;28868;54.074;18.770;2023-02-11T15:13:02;22.45;;;4.30;;
43266;SDS011;28868;54.074;18.770;2023-02-11T15:19:47;23.25;;;3.80;;
43266;SDS011;28868;54.074;18.770;2023-02-11T15:26:33;23.15;;;4.15;;
43266;SDS011;28868;54.074;18.770;2023-02-11T15:33:20;15.85;;;2.55;;
43266;SDS011;28868;54.074;18.770;2023-02-11T15:40:15;24.38;;;3.00;;
43266;SDS011;28868;54.074;18.770;2023-02-11T15:47:07;23.48;;;2.75;;
43266;SDS011;28868;54.074;18.770;2023-02-11T15:53:56;19.23;;;2.60;;
43266;SDS011;28868;54.074;18.770;2023-02-11T16:00:48;28.42;;;3.60;;
43266;SDS011;28868;54.074;18.770;2023-02-11T16:07:46;17.55;;;3.10;;
43266;SDS011;28868;54.074;18.770;2023-02-11T16:14:34;30.38;;;4.38;;
43266;SDS011;28868;54.074;18.770;2023-02-11T16:21:20;27.00;;;4.10;;
43266;SDS011;28868;54.074;18.770;2023-02-11T16:28:11;27.30;;;4.93;;
43266;SDS011;28868;54.074;18.770;2023-02-11T16:34:57;28.58;;;4.55;;
43266;SDS011;28868;54.074;18.770;2023-02-11T16:41:41;29.17;;;8.23;;
43266;SDS011;28868;54.074;18.770;2023-02-11T16:48:24;19.35;;;3.72;;
43266;SDS011;67779;54.074;18.770;2023-02-11T16:56:54;14.98;;;2.55;;
43266;SDS011;67779;54.074;18.770;2023-02-11T17:03:40;20.75;;;3.17;;
43266;SDS011;67779;54.074;18.770;2023-02-11T17:10:24;19.10;;;2.83;;
43266;SDS011;67779;54.074;18.770;2023-02-11T17:17:08;13.80;;;2.30;;
43266;SDS011;67779;54.074;18.770;2023-02-11T17:23:51;11.80;;;1.67;;
43266;SDS011;67779;54.074;18.770;2023-02-11T17:30:34;9.35;;;1.95;;
43266;SDS011;67779;54.074;18.770;2023-02-11T17:37:16;9.57;;;1.23;;
43266;SDS011;67779;54.074;18.770;2023-02-11T17:43:58;10.25;;;2.13;;
43266;SDS011;67779;54.074;18.770;2023-02-11T17:50:41;11.32;;;1.85;;
43266;SDS011;67779;54.074;18.770;2023-02-11T17:57:23;8.57;;;2.05;;
43266;SDS011;67779;54.074;18.770;2023-02-11T18:04:06;4.43;;;0.90;;
43266;SDS011;67779;54.074;18.770;2023-02-11T18:10:54;8.45;;;1.02;;
43266;SDS011;67779;54.074;18.770;2023-02-11T18:17:36;9.02;;;3.17;;
43266;SDS011;67779;54.074;18.770;2023-02-11T18:24:19;7.75;;;1.58;;
43266;SDS011;67779;54.074;18.770;2023-02-11T18:31:02;5.82;;;0.85;;
43266;SDS011;67779;54.074;18.770;2023-02-11T18:37:48;6.05;;;1.00;;
43266;SDS011;67779;54.074;18.770;2023-02-11T18:44:32;5.75;;;1.02;;
43266;SDS011;67779;54.074;18.770;2023-02-11T18:51:15;7.57;;;1.45;;
43266;SDS011;67779;54.074;18.770;2023-02-11T18:58:00;10.43;;;1.55;;
43266;SDS011;67779;54.074;18.770;2023-02-11T19:04:42;5.88;;;0.93;;
43266;SDS011;67779;54.074;18.770;2023-02-11T19:11:25;12.30;;;1.45;;
43266;SDS011;67779;54.074;18.770;2023-02-11T19:18:28;8.80;;;1.40;;
43266;SDS011;67779;54.074;18.770;2023-02-11T19:25:11;9.68;;;1.70;;
43266;SDS011;67779;54.074;18.770;2023-02-11T19:31:55;8.15;;;1.00;;
43266;SDS011;67779;54.074;18.770;2023-02-11T19:38:38;8.43;;;1.37;;
43266;SDS011;67779;54.074;18.770;2023-02-11T19:45:21;7.90;;;1.70;;
43266;SDS011;67779;54.074;18.770;2023-02-11T19:52:03;6.20;;;0.80;;
43266;SDS011;67779;54.074;18.770;2023-02-11T19:58:46;5.50;;;1.10;;
43266;SDS011;67779;54.074;18.770;2023-02-11T20:05:28;5.15;;;0.80;;
43266;SDS011;67779;54.074;18.770;2023-02-11T20:12:12;3.47;;;0.80;;
43266;SDS011;67779;54.074;18.770;2023-02-11T20:18:54;3.05;;;0.47;;
43266;SDS011;67779;54.074;18.770;2023-02-11T20:25:39;3.22;;;0.60;;
43266;SDS011;67779;54.074;18.770;2023-02-11T20:32:21;4.45;;;0.75;;
43266;SDS011;67779;54.074;18.770;2023-02-11T20:39:04;2.95;;;0.50;;
43266;SDS011;67779;54.074;18.770;2023-02-11T20:46:05;6.15;;;1.00;;
43266;SDS011;67779;54.074;18.770;2023-02-11T20:52:53;8.18;;;0.82;;
43266;SDS011;67779;54.074;18.770;2023-02-11T20:59:40;11.93;;;1.15;;
43266;SDS011;67779;54.074;18.770;2023-02-11T21:06:49;2.35;;;0.80;;
43266;SDS011;67779;54.074;18.770;2023-02-11T21:13:36;6.15;;;0.80;;
43266;SDS011;67779;54.074;18.770;2023-02-11T21:20:23;5.90;;;0.57;;
43266;SDS011;67779;54.074;18.770;2023-02-11T21:27:09;2.20;;;0.43;;
43266;SDS011;67779;54.074;18.770;2023-02-11T21:33:54;2.97;;;0.45;;
43266;SDS011;67779;54.074;18.770;2023-02-11T21:40:37;3.25;;;0.50;;
43266;SDS011;67779;54.074;18.770;2023-02-11T21:47:20;4.40;;;0.90;;
43266;SDS011;67779;54.074;18.770;2023-02-11T21:54:02;5.55;;;0.63;;
43266;SDS011;67779;54.074;18.770;2023-02-11T22:00:50;7.43;;;1.13;;
43266;SDS011;67779;54.074;18.770;2023-02-11T22:07:36;7.13;;;1.00;;
43266;SDS011;67779;54.074;18.770;2023-02-11T22:14:18;4.43;;;0.90;;
43266;SDS011;67779;54.074;18.770;2023-02-11T22:21:02;6.43;;;1.00;;
43266;SDS011;67779;54.074;18.770;2023-02-11T22:27:53;7.43;;;0.70;;
43266;SDS011;67779;54.074;18.770;2023-02-11T22:34:36;5.40;;;0.90;;
43266;SDS011;67779;54.074;18.770;2023-02-11T22:41:18;7.03;;;0.70;;
43266;SDS011;67779;54.074;18.770;2023-02-11T22:48:03;3.43;;;0.70;;
43266;SDS011;67779;54.074;18.770;2023-02-11T22:54:49;4.07;;;0.70;;
43266;SDS011;67779;54.074;18.770;2023-02-11T23:01:32;6.13;;;0.98;;
43266;SDS011;67779;54.074;18.770;2023-02-11T23:08:21;4.13;;;1.13;;
43266;SDS011;67779;54.074;18.770;2023-02-11T23:15:03;5.05;;;0.80;;
43266;SDS011;67779;54.074;18.770;2023-02-11T23:21:46;3.83;;;0.50;;
43266;SDS011;67779;54.074;18.770;2023-02-11T23:28:32;5.88;;;0.52;;
43266;SDS011;67779;54.074;18.770;2023-02-11T23:35:19;5.00;;;0.68;;
43266;SDS011;67779;54.074;18.770;2023-02-11T23:42:03;6.77;;;0.73;;
43266;SDS011;67779;54.074;18.770;2023-02-11T23:48:48;2.60;;;0.55;;
43266;SDS011;67779;54.074;18.770;2023-02-11T23:55:32;4.00;;;0.70;;
